createdAt,value
2022-11-19T00:00:11.945Z,0.53
2022-11-19T00:03:15.150Z,0.70
2022-11-19T00:06:19.791Z,0.73
2022-11-19T00:09:23.023Z,0.93
2022-11-19T00:12:43.576Z,1.10
2022-11-19T00:15:47.803Z,0.80
2022-11-19T00:18:50.651Z,0.73
2022-11-19T00:21:53.571Z,0.70
2022-11-19T00:24:56.455Z,1.00
2022-11-19T00:27:59.670Z,0.90
2022-11-19T00:31:05.310Z,0.60
2022-11-19T00:34:08.467Z,1.17
2022-11-19T00:37:11.440Z,0.67
2022-11-19T00:40:14.820Z,0.90
2022-11-19T00:43:35.115Z,1.07
2022-11-19T00:46:39.337Z,1.10
2022-11-19T00:49:42.459Z,0.97
2022-11-19T00:52:45.318Z,1.23
2022-11-19T00:55:48.254Z,1.40
2022-11-19T00:58:51.460Z,1.50
2022-11-19T01:01:55.735Z,1.50
2022-11-19T01:04:58.615Z,1.40
2022-11-19T01:08:01.526Z,1.73
2022-11-19T01:11:08.910Z,1.47
2022-11-19T01:14:11.975Z,1.77
2022-11-19T01:17:16.206Z,1.70
2022-11-19T01:20:19.169Z,2.40
2022-11-19T01:23:22.185Z,2.37
2022-11-19T01:26:25.897Z,1.80
2022-11-19T01:29:28.896Z,1.73
2022-11-19T01:32:33.162Z,1.97
2022-11-19T01:35:36.732Z,2.33
2022-11-19T01:38:39.714Z,2.33
2022-11-19T01:41:42.607Z,2.30
2022-11-19T01:45:02.012Z,2.80
2022-11-19T01:48:10.682Z,2.50
2022-11-19T01:51:16.952Z,2.40
2022-11-19T01:54:25.472Z,2.40
2022-11-19T01:57:28.631Z,1.93
2022-11-19T02:00:31.568Z,2.43
2022-11-19T02:03:37.490Z,2.43
2022-11-19T02:06:40.872Z,2.10
2022-11-19T02:09:44.342Z,2.67
2022-11-19T02:12:52.316Z,2.70
2022-11-19T02:16:01.302Z,2.23
2022-11-19T02:19:18.844Z,2.50
2022-11-19T02:22:41.826Z,2.00
2022-11-19T02:26:06.588Z,2.43
2022-11-19T02:29:21.506Z,1.57
2022-11-19T02:32:31.960Z,2.13
2022-11-19T02:35:47.415Z,2.03
2022-11-19T02:38:53.289Z,2.20
2022-11-19T02:42:04.910Z,2.40
2022-11-19T02:45:12.203Z,2.20
2022-11-19T02:48:19.182Z,1.97
2022-11-19T02:51:23.148Z,2.17
2022-11-19T02:54:27.325Z,2.50
2022-11-19T02:57:30.229Z,2.43
2022-11-19T03:01:00.328Z,2.00
2022-11-19T03:04:22.282Z,1.93
2022-11-19T03:07:25.306Z,1.43
2022-11-19T03:10:33.616Z,1.63
2022-11-19T03:14:06.610Z,1.47
2022-11-19T03:17:17.013Z,1.60
2022-11-19T03:20:26.321Z,1.40
2022-11-19T03:23:33.605Z,1.57
2022-11-19T03:26:38.729Z,1.50
2022-11-19T03:29:47.812Z,1.70
2022-11-19T03:32:57.882Z,1.30
2022-11-19T03:36:06.676Z,1.37
2022-11-19T03:39:14.025Z,1.37
2022-11-19T03:42:19.810Z,1.30
2022-11-19T03:45:28.425Z,0.97
2022-11-19T03:48:32.902Z,1.03
2022-11-19T03:51:42.627Z,1.10
2022-11-19T03:54:45.687Z,1.03
2022-11-19T03:57:48.612Z,1.00
2022-11-19T04:00:51.488Z,0.87
2022-11-19T04:04:12.192Z,1.00
2022-11-19T04:07:19.242Z,1.30
2022-11-19T04:10:22.496Z,0.80
2022-11-19T04:13:25.529Z,0.73
2022-11-19T04:16:28.596Z,0.90
2022-11-19T04:19:31.587Z,0.77
2022-11-19T04:22:36.011Z,1.00
2022-11-19T04:25:40.368Z,1.07
2022-11-19T04:28:43.328Z,0.93
2022-11-19T04:31:46.299Z,0.70
2022-11-19T04:34:49.566Z,0.73
2022-11-19T04:37:53.784Z,0.70
2022-11-19T04:40:56.702Z,0.90
2022-11-19T04:43:59.579Z,1.00
2022-11-19T04:47:02.480Z,0.90
2022-11-19T04:50:06.134Z,0.70
2022-11-19T04:53:10.364Z,1.17
2022-11-19T04:56:13.303Z,1.60
2022-11-19T04:59:16.220Z,1.40
2022-11-19T05:02:19.107Z,1.10
2022-11-19T05:05:21.983Z,1.10
2022-11-19T05:08:26.726Z,1.10
2022-11-19T05:11:29.613Z,0.80
2022-11-19T05:14:32.523Z,1.20
2022-11-19T05:17:35.693Z,0.90
2022-11-19T05:20:39.049Z,1.10
2022-11-19T05:23:43.277Z,0.60
2022-11-19T05:26:46.156Z,1.03
2022-11-19T05:29:49.042Z,1.00
2022-11-19T05:32:51.925Z,1.00
2022-11-19T05:35:54.787Z,1.10
2022-11-19T05:38:59.947Z,1.10
2022-11-19T05:42:02.824Z,0.77
2022-11-19T05:45:06.691Z,1.20
2022-11-19T05:48:09.614Z,1.10
2022-11-19T05:51:15.315Z,1.30
2022-11-19T05:54:19.584Z,1.20
2022-11-19T05:57:22.490Z,1.40
2022-11-19T06:00:25.360Z,1.23
2022-11-19T06:03:28.344Z,1.77
2022-11-19T06:06:31.265Z,7.40
2022-11-19T06:09:35.507Z,1.97
2022-11-19T06:12:41.274Z,4.53
2022-11-19T06:15:48.124Z,3.47
2022-11-19T06:18:51.038Z,4.00
2022-11-19T06:21:54.460Z,1.83
2022-11-19T06:24:58.718Z,1.30
2022-11-19T06:28:01.631Z,1.43
2022-11-19T06:31:04.746Z,1.63
2022-11-19T06:34:08.216Z,1.20
2022-11-19T06:37:11.139Z,3.47
2022-11-19T06:40:16.428Z,2.10
2022-11-19T06:43:19.341Z,2.80
2022-11-19T06:46:22.239Z,1.43
2022-11-19T06:49:25.501Z,2.47
2022-11-19T06:52:29.436Z,1.80
2022-11-19T06:55:33.668Z,1.83
2022-11-19T06:58:36.869Z,2.53
2022-11-19T07:01:39.772Z,1.07
2022-11-19T07:04:42.699Z,1.70
2022-11-19T07:07:45.597Z,1.07
2022-11-19T07:10:49.809Z,1.63
2022-11-19T07:13:59.542Z,1.90
2022-11-19T07:17:02.846Z,1.47
2022-11-19T07:20:07.080Z,1.00
2022-11-19T07:23:11.502Z,0.83
2022-11-19T07:26:16.208Z,1.53
2022-11-19T07:29:19.830Z,4.03
2022-11-19T07:32:22.979Z,1.80
2022-11-19T07:35:26.153Z,1.77
2022-11-19T07:38:34.104Z,1.50
2022-11-19T07:41:57.539Z,1.27
2022-11-19T07:45:00.417Z,0.93
2022-11-19T07:48:03.364Z,1.37
2022-11-19T07:51:06.287Z,1.30
2022-11-19T07:54:10.089Z,1.30
2022-11-19T07:57:15.038Z,1.00
2022-11-19T08:00:18.442Z,1.07
2022-11-19T08:03:21.514Z,1.10
2022-11-19T08:06:25.988Z,1.50
2022-11-19T08:09:28.891Z,1.67
2022-11-19T08:12:33.197Z,1.00
2022-11-19T08:15:36.132Z,1.00
2022-11-19T08:18:39.437Z,1.30
2022-11-19T08:21:44.385Z,1.87
2022-11-19T08:24:47.293Z,1.60
2022-11-19T08:27:51.528Z,1.20
2022-11-19T08:30:54.994Z,1.20
2022-11-19T08:33:57.877Z,1.47
2022-11-19T08:37:00.738Z,1.50
2022-11-19T08:40:03.606Z,1.13
2022-11-19T08:43:06.862Z,1.40
2022-11-19T08:46:10.227Z,1.00
2022-11-19T08:49:13.326Z,1.10
2022-11-19T08:52:16.227Z,1.00
2022-11-19T08:55:19.128Z,0.90
2022-11-19T08:58:23.468Z,0.87
2022-11-19T09:01:26.641Z,1.13
2022-11-19T09:04:29.518Z,0.80
2022-11-19T09:07:32.444Z,4.00
2022-11-19T09:10:35.719Z,2.13
2022-11-19T09:13:40.312Z,0.80
2022-11-19T09:16:43.384Z,1.47
2022-11-19T09:19:46.302Z,1.83
2022-11-19T09:22:50.035Z,1.80
2022-11-19T09:25:57.111Z,1.33
2022-11-19T09:29:01.335Z,1.77
2022-11-19T09:32:04.383Z,1.40
2022-11-19T09:35:08.308Z,1.17
2022-11-19T09:38:11.192Z,1.00
2022-11-19T09:41:44.625Z,1.33
2022-11-19T09:45:20.122Z,1.20
2022-11-19T09:48:33.762Z,1.50
2022-11-19T09:51:40.321Z,1.60
2022-11-19T09:54:47.661Z,1.60
2022-11-19T09:57:53.751Z,1.20
2022-11-19T10:00:56.716Z,1.27
2022-11-19T10:04:02.081Z,1.70
2022-11-19T10:07:12.513Z,1.20
2022-11-19T10:10:26.049Z,1.97
2022-11-19T10:13:48.773Z,1.47
2022-11-19T10:17:01.056Z,1.80
2022-11-19T10:20:21.896Z,1.90
2022-11-19T10:23:32.378Z,1.37
2022-11-19T10:26:37.807Z,1.93
2022-11-19T10:29:41.003Z,2.00
2022-11-19T10:32:48.495Z,1.20
2022-11-19T10:35:57.105Z,2.10
2022-11-19T10:39:07.886Z,1.30
2022-11-19T10:42:18.983Z,1.17
2022-11-19T10:45:25.191Z,1.37
2022-11-19T10:48:38.101Z,1.00
2022-11-19T10:51:43.411Z,1.27
2022-11-19T10:54:48.512Z,1.07
2022-11-19T10:57:55.875Z,1.13
2022-11-19T11:01:02.279Z,1.20
2022-11-19T11:04:12.751Z,1.77
2022-11-19T11:07:17.636Z,1.43
2022-11-19T11:10:36.204Z,1.37
2022-11-19T11:13:58.195Z,1.50
2022-11-19T11:17:01.096Z,0.90
2022-11-19T11:20:07.946Z,0.93
2022-11-19T11:23:16.040Z,1.27
2022-11-19T11:26:25.266Z,0.83
2022-11-19T11:29:28.528Z,1.07
2022-11-19T11:32:32.598Z,0.80
2022-11-19T11:35:38.502Z,1.17
2022-11-19T11:38:45.066Z,0.63
2022-11-19T11:42:05.580Z,0.70
2022-11-19T11:45:29.357Z,0.60
2022-11-19T11:48:37.632Z,0.73
2022-11-19T11:51:40.899Z,0.90
2022-11-19T11:54:59.413Z,0.60
2022-11-19T11:58:04.042Z,0.70
2022-11-19T12:01:16.205Z,0.70
2022-11-19T12:04:19.233Z,1.00
2022-11-19T12:07:33.491Z,0.97
2022-11-19T12:10:46.043Z,1.27
2022-11-19T12:13:54.791Z,1.57
2022-11-19T12:17:11.824Z,1.47
2022-11-19T12:20:23.386Z,1.10
2022-11-19T12:23:56.156Z,1.13
2022-11-19T12:27:12.358Z,1.67
2022-11-19T12:30:19.315Z,1.20
2022-11-19T12:33:38.243Z,1.00
2022-11-19T12:36:49.492Z,1.00
2022-11-19T12:39:55.680Z,1.53
2022-11-19T12:43:07.886Z,1.30
2022-11-19T12:46:21.074Z,0.90
2022-11-19T12:49:38.786Z,1.30
2022-11-19T12:53:03.335Z,1.00
2022-11-19T12:56:17.964Z,0.77
2022-11-19T12:59:37.321Z,0.70
2022-11-19T13:02:49.716Z,0.50
2022-11-19T13:05:56.400Z,0.93
2022-11-19T13:09:02.633Z,0.80
2022-11-19T13:12:09.000Z,0.63
2022-11-19T13:15:20.420Z,0.77
2022-11-19T13:18:25.095Z,1.00
2022-11-19T13:21:34.868Z,0.67
2022-11-19T13:24:41.112Z,0.43
2022-11-19T13:27:47.009Z,0.50
2022-11-19T13:30:54.567Z,0.70
2022-11-19T13:34:01.092Z,0.73
2022-11-19T13:37:13.004Z,0.77
2022-11-19T13:40:23.358Z,0.63
2022-11-19T13:43:45.165Z,0.70
2022-11-19T13:46:54.754Z,0.80
2022-11-19T13:50:01.798Z,1.13
2022-11-19T13:53:08.214Z,0.60
2022-11-19T13:56:15.234Z,0.90
2022-11-19T13:59:31.532Z,0.80
2022-11-19T14:02:56.313Z,1.17
2022-11-19T14:06:19.795Z,1.23
2022-11-19T14:09:31.830Z,0.80
2022-11-19T14:13:07.209Z,0.60
2022-11-19T14:16:39.187Z,0.90
2022-11-19T14:20:10.138Z,0.63
2022-11-19T14:23:58.982Z,0.80
2022-11-19T14:27:17.236Z,0.90
2022-11-19T14:30:22.119Z,0.60
2022-11-19T14:33:57.972Z,0.43
2022-11-19T14:37:05.372Z,0.77
2022-11-19T14:40:14.556Z,0.80
2022-11-19T14:43:46.499Z,0.97
2022-11-19T14:46:50.283Z,0.70
2022-11-19T14:49:54.414Z,0.67
2022-11-19T14:53:00.607Z,0.73
2022-11-19T14:56:11.790Z,0.40
2022-11-19T14:59:21.747Z,0.60
2022-11-19T15:02:30.190Z,0.70
2022-11-19T15:05:35.329Z,0.80
2022-11-19T15:08:52.059Z,0.50
2022-11-19T15:12:02.888Z,0.87
2022-11-19T15:15:39.281Z,0.80
2022-11-19T15:19:21.453Z,0.60
2022-11-19T15:22:39.932Z,0.90
2022-11-19T15:25:56.422Z,0.80
2022-11-19T15:29:09.942Z,1.17
2022-11-19T15:32:26.594Z,1.13
2022-11-19T15:35:43.665Z,1.03
2022-11-19T15:38:51.480Z,1.10
2022-11-19T15:42:02.260Z,1.20
2022-11-19T15:45:12.732Z,1.03
2022-11-19T15:48:20.179Z,1.30
2022-11-19T15:51:24.050Z,1.27
2022-11-19T15:54:31.936Z,2.13
2022-11-19T15:57:41.965Z,2.10
2022-11-19T16:00:47.020Z,2.07
2022-11-19T16:03:53.151Z,5.27
2022-11-19T16:06:56.468Z,3.13
2022-11-19T16:10:00.365Z,2.27
2022-11-19T16:13:38.537Z,7.20
2022-11-19T16:17:04.191Z,6.40
2022-11-19T16:20:19.899Z,8.33
2022-11-19T16:23:25.037Z,5.70
2022-11-19T16:26:28.076Z,2.43
2022-11-19T16:29:36.307Z,3.90
2022-11-19T16:32:39.232Z,5.90
2022-11-19T16:35:42.142Z,1.90
2022-11-19T16:38:48.063Z,1.73
2022-11-19T16:42:14.024Z,1.40
2022-11-19T16:45:23.187Z,2.37
2022-11-19T16:49:01.899Z,3.67
2022-11-19T16:52:07.572Z,1.63
2022-11-19T16:55:40.329Z,0.90
2022-11-19T16:58:43.313Z,0.97
2022-11-19T17:01:53.624Z,3.07
2022-11-19T17:05:03.614Z,1.80
2022-11-19T17:08:19.810Z,5.43
2022-11-19T17:11:42.420Z,3.20
2022-11-19T17:14:52.193Z,5.43
2022-11-19T17:17:56.408Z,3.87
2022-11-19T17:21:02.869Z,3.10
2022-11-19T17:24:06.570Z,1.30
2022-11-19T17:27:23.658Z,1.13
2022-11-19T17:30:31.678Z,2.07
2022-11-19T17:33:37.786Z,1.70
2022-11-19T17:36:42.484Z,1.93
2022-11-19T17:39:45.584Z,1.40
2022-11-19T17:43:05.708Z,1.37
2022-11-19T17:46:08.696Z,1.40
2022-11-19T17:49:13.107Z,1.30
2022-11-19T17:52:23.479Z,2.20
2022-11-19T17:55:26.600Z,2.10
2022-11-19T17:58:29.476Z,2.00
2022-11-19T18:01:32.458Z,1.60
2022-11-19T18:04:36.710Z,2.23
2022-11-19T18:07:39.639Z,1.50
2022-11-19T18:10:44.974Z,1.03
2022-11-19T18:13:50.483Z,1.10
2022-11-19T18:16:53.524Z,1.20
2022-11-19T18:19:57.885Z,1.10
2022-11-19T18:23:01.008Z,1.43
2022-11-19T18:26:03.918Z,3.10
2022-11-19T18:29:06.824Z,1.30
2022-11-19T18:32:11.318Z,1.80
2022-11-19T18:35:18.298Z,4.53
2022-11-19T18:38:21.421Z,2.33
2022-11-19T18:41:24.336Z,1.43
2022-11-19T18:44:35.966Z,1.73
2022-11-19T18:47:38.850Z,2.87
2022-11-19T18:50:43.128Z,1.80
2022-11-19T18:53:46.203Z,2.03
2022-11-19T18:56:49.256Z,4.90
2022-11-19T18:59:52.183Z,4.53
2022-11-19T19:02:55.128Z,4.53
2022-11-19T19:06:01.590Z,2.87
2022-11-19T19:09:04.502Z,3.87
2022-11-19T19:12:18.515Z,2.83
2022-11-19T19:15:21.387Z,2.70
2022-11-19T19:18:24.284Z,6.70
2022-11-19T19:21:29.127Z,4.33
2022-11-19T19:24:32.521Z,5.77
2022-11-19T19:27:35.527Z,6.27
2022-11-19T19:30:38.374Z,5.67
2022-11-19T19:33:41.247Z,4.00
2022-11-19T19:36:48.985Z,7.80
2022-11-19T19:39:55.705Z,7.57
2022-11-19T19:43:03.038Z,5.40
2022-11-19T19:46:06.448Z,5.67
2022-11-19T19:49:09.454Z,4.33
2022-11-19T19:52:13.655Z,4.47
2022-11-19T19:55:16.556Z,3.77
2022-11-19T19:58:19.680Z,4.37
2022-11-19T20:01:26.467Z,3.93
2022-11-19T20:04:29.430Z,4.87
2022-11-19T20:07:33.677Z,5.63
2022-11-19T20:10:36.579Z,6.20
2022-11-19T20:13:40.954Z,6.43
2022-11-19T20:16:43.850Z,4.97
2022-11-19T20:19:46.741Z,4.90
2022-11-19T20:22:50.966Z,5.53
2022-11-19T20:25:57.613Z,6.87
2022-11-19T20:29:02.034Z,5.97
2022-11-19T20:32:05.075Z,8.10
2022-11-19T20:35:08.894Z,7.87
2022-11-19T20:38:13.115Z,10.03
2022-11-19T20:41:34.956Z,8.53
2022-11-19T20:44:37.842Z,6.87
2022-11-19T20:47:40.789Z,9.73
2022-11-19T20:50:43.691Z,9.83
2022-11-19T20:53:48.047Z,10.23
2022-11-19T20:56:52.038Z,9.63
2022-11-19T20:59:54.924Z,8.70
2022-11-19T21:02:57.844Z,9.17
2022-11-19T21:06:03.464Z,7.63
2022-11-19T21:09:08.252Z,6.90
2022-11-19T21:12:11.143Z,6.10
2022-11-19T21:15:14.674Z,7.23
2022-11-19T21:18:17.575Z,6.37
2022-11-19T21:21:21.742Z,5.50
2022-11-19T21:24:25.991Z,5.70
2022-11-19T21:27:29.030Z,5.00
2022-11-19T21:30:31.928Z,4.47
2022-11-19T21:33:34.888Z,3.03
2022-11-19T21:36:38.530Z,4.33
2022-11-19T21:39:43.322Z,3.27
2022-11-19T21:42:46.198Z,3.50
2022-11-19T21:45:49.671Z,3.67
2022-11-19T21:48:52.704Z,2.53
2022-11-19T21:51:55.872Z,2.43
2022-11-19T21:55:00.127Z,3.33
2022-11-19T21:58:04.390Z,2.67
2022-11-19T22:01:07.726Z,2.63
2022-11-19T22:04:13.604Z,3.07
2022-11-19T22:07:16.541Z,3.23
2022-11-19T22:10:21.746Z,3.90
2022-11-19T22:13:24.778Z,3.80
2022-11-19T22:16:28.016Z,2.60
2022-11-19T22:19:30.926Z,2.30
2022-11-19T22:22:34.213Z,2.57
2022-11-19T22:25:38.497Z,3.13
2022-11-19T22:28:41.508Z,2.80
2022-11-19T22:31:44.420Z,2.50
2022-11-19T22:34:47.360Z,2.50
2022-11-19T22:37:50.452Z,2.03
2022-11-19T22:40:54.948Z,1.90
2022-11-19T22:43:58.921Z,2.50
2022-11-19T22:47:01.776Z,2.70
2022-11-19T22:50:05.195Z,2.17
2022-11-19T22:53:08.158Z,2.60
2022-11-19T22:56:14.384Z,1.93
2022-11-19T22:59:17.294Z,2.50
2022-11-19T23:02:20.225Z,2.97
2022-11-19T23:05:23.094Z,2.37
2022-11-19T23:08:26.541Z,3.03
2022-11-19T23:11:48.599Z,2.70
2022-11-19T23:14:51.475Z,3.50
2022-11-19T23:17:54.336Z,2.60
2022-11-19T23:20:57.661Z,2.10
2022-11-19T23:24:01.048Z,1.90
2022-11-19T23:27:05.276Z,2.57
2022-11-19T23:30:09.441Z,2.20
2022-11-19T23:33:12.303Z,1.73
2022-11-19T23:36:16.770Z,1.80
2022-11-19T23:39:20.012Z,1.80
2022-11-19T23:42:24.408Z,1.43
2022-11-19T23:45:27.283Z,2.53
2022-11-19T23:48:31.138Z,1.47
2022-11-19T23:51:36.440Z,1.67
2022-11-19T23:54:39.308Z,1.57
2022-11-19T23:57:43.563Z,1.67
